sensor_id;sensor_type;location;lat;lon;timestamp;pressure;altitude;pressure_sealevel;temperature
76007;BMP280;64699;0.000;0.000;2023-03-14T00:02:15;98990.88;;;17.61
76007;BMP280;64699;0.000;0.000;2023-03-14T00:04:40;98982.63;;;17.61
76007;BMP280;64699;0.000;0.000;2023-03-14T00:07:06;98983.94;;;17.60
76007;BMP280;64699;0.000;0.000;2023-03-14T00:09:31;98979.72;;;17.59
76007;BMP280;64699;0.000;0.000;2023-03-14T00:11:56;98964.72;;;17.60
76007;BMP280;64699;0.000;0.000;2023-03-14T00:14:22;98971.84;;;17.63
76007;BMP280;64699;0.000;0.000;2023-03-14T00:16:47;98969.66;;;17.61
76007;BMP280;64699;0.000;0.000;2023-03-14T00:19:13;98958.66;;;17.61
76007;BMP280;64699;0.000;0.000;2023-03-14T00:21:38;98949.53;;;17.59
76007;BMP280;64699;0.000;0.000;2023-03-14T00:24:03;98948.78;;;17.58
76007;BMP280;64699;0.000;0.000;2023-03-14T00:26:29;98937.09;;;17.58
76007;BMP280;64699;0.000;0.000;2023-03-14T00:28:54;98948.78;;;17.58
76007;BMP280;64699;0.000;0.000;2023-03-14T00:31:19;98940.53;;;17.58
76007;BMP280;64699;0.000;0.000;2023-03-14T00:33:45;98922.06;;;17.59
76007;BMP280;64699;0.000;0.000;2023-03-14T00:36:12;98928.69;;;17.56
76007;BMP280;64699;0.000;0.000;2023-03-14T00:38:38;98928.09;;;17.57
76007;BMP280;64699;0.000;0.000;2023-03-14T00:41:04;98921.91;;;17.57
76007;BMP280;64699;0.000;0.000;2023-03-14T00:43:30;98919.16;;;17.57
76007;BMP280;64699;0.000;0.000;2023-03-14T00:45:55;98916.41;;;17.57
76007;BMP280;64699;0.000;0.000;2023-03-14T00:48:22;98916.25;;;17.55
76007;BMP280;64699;0.000;0.000;2023-03-14T00:50:47;98906.53;;;17.54
76007;BMP280;64699;0.000;0.000;2023-03-14T00:53:13;98903.78;;;17.54
76007;BMP280;64699;0.000;0.000;2023-03-14T00:55:38;98899.03;;;17.54
76007;BMP280;64699;0.000;0.000;2023-03-14T00:58:04;98897.59;;;17.53
76007;BMP280;64699;0.000;0.000;2023-03-14T01:00:29;98882.38;;;17.52
76007;BMP280;64699;0.000;0.000;2023-03-14T01:02:55;98884.41;;;17.52
76007;BMP280;64699;0.000;0.000;2023-03-14T01:05:21;98878.91;;;17.52
76007;BMP280;64699;0.000;0.000;2023-03-14T01:07:46;98876.00;;;17.50
76007;BMP280;64699;0.000;0.000;2023-03-14T01:10:11;98875.84;;;17.48
76007;BMP280;64699;0.000;0.000;2023-03-14T01:12:37;98880.03;;;17.49
76007;BMP280;64699;0.000;0.000;2023-03-14T01:15:02;98862.66;;;17.46
76007;BMP280;64699;0.000;0.000;2023-03-14T01:17:27;98859.38;;;17.48
76007;BMP280;64699;0.000;0.000;2023-03-14T01:19:52;98858.25;;;17.51
76007;BMP280;64699;0.000;0.000;2023-03-14T01:22:18;98852.59;;;17.49
76007;BMP280;64699;0.000;0.000;2023-03-14T01:24:43;98862.81;;;17.48
76007;BMP280;64699;0.000;0.000;2023-03-14T01:27:08;98854.59;;;17.48
76007;BMP280;64699;0.000;0.000;2023-03-14T01:29:33;98853.13;;;17.47
76007;BMP280;64699;0.000;0.000;2023-03-14T01:31:59;98857.88;;;17.47
76007;BMP280;64699;0.000;0.000;2023-03-14T01:34:24;98863.03;;;17.43
76007;BMP280;64699;0.000;0.000;2023-03-14T01:36:49;98860.31;;;17.43
76007;BMP280;64699;0.000;0.000;2023-03-14T01:39:14;98853.34;;;17.42
76007;BMP280;64699;0.000;0.000;2023-03-14T01:41:40;98850.06;;;17.43
76007;BMP280;64699;0.000;0.000;2023-03-14T01:44:05;98849.31;;;17.43
76007;BMP280;64699;0.000;0.000;2023-03-14T01:46:43;98851.91;;;17.41
76007;BMP280;64699;0.000;0.000;2023-03-14T01:54:24;98850.25;;;17.38
76007;BMP280;64699;0.000;0.000;2023-03-14T01:56:55;98845.38;;;17.37
76007;BMP280;64699;0.000;0.000;2023-03-14T01:59:22;98857.94;;;17.40
76007;BMP280;64699;0.000;0.000;2023-03-14T02:01:47;98866.94;;;17.40
76007;BMP280;64699;0.000;0.000;2023-03-14T02:04:14;98862.53;;;17.37
76007;BMP280;64699;0.000;0.000;2023-03-14T02:06:52;98861.22;;;17.38
76007;BMP280;64699;0.000;0.000;2023-03-14T02:09:19;98847.91;;;17.35
76007;BMP280;64699;0.000;0.000;2023-03-14T02:11:45;98860.16;;;17.34
76007;BMP280;64699;0.000;0.000;2023-03-14T02:14:14;98840.25;;;17.33
76007;BMP280;64699;0.000;0.000;2023-03-14T02:16:43;98841.56;;;17.32
76007;BMP280;64699;0.000;0.000;2023-03-14T02:19:08;98845.38;;;17.29
76007;BMP280;64699;0.000;0.000;2023-03-14T02:26:34;98836.59;;;17.31
76007;BMP280;64699;0.000;0.000;2023-03-14T02:29:01;98829.66;;;17.30
76007;BMP280;64699;0.000;0.000;2023-03-14T02:31:26;98832.78;;;17.26
76007;BMP280;64699;0.000;0.000;2023-03-14T02:33:52;98830.06;;;17.26
76007;BMP280;64699;0.000;0.000;2023-03-14T02:36:17;98813.59;;;17.26
76007;BMP280;64699;0.000;0.000;2023-03-14T02:38:49;98803.88;;;17.25
76007;BMP280;64699;0.000;0.000;2023-03-14T02:41:16;98792.72;;;17.23
76007;BMP280;64699;0.000;0.000;2023-03-14T02:43:42;98792.00;;;17.23
76007;BMP280;64699;0.000;0.000;2023-03-14T02:46:07;98791.47;;;17.24
76007;BMP280;64699;0.000;0.000;2023-03-14T02:51:06;98774.25;;;17.24
76007;BMP280;64699;0.000;0.000;2023-03-14T02:53:33;98766.41;;;17.20
76007;BMP280;64699;0.000;0.000;2023-03-14T02:55:58;98770.44;;;17.19
76007;BMP280;64699;0.000;0.000;2023-03-14T02:58:24;98781.97;;;17.18
76007;BMP280;64699;0.000;0.000;2023-03-14T03:00:49;98775.59;;;17.15
76007;BMP280;64699;0.000;0.000;2023-03-14T03:03:15;98781.81;;;17.16
76007;BMP280;64699;0.000;0.000;2023-03-14T03:05:40;98774.28;;;17.16
76007;BMP280;64699;0.000;0.000;2023-03-14T03:08:05;98778.31;;;17.15
76007;BMP280;64699;0.000;0.000;2023-03-14T03:10:31;98765.34;;;17.16
76007;BMP280;64699;0.000;0.000;2023-03-14T03:12:56;98771.94;;;17.13
76007;BMP280;64699;0.000;0.000;2023-03-14T03:15:21;98786.56;;;17.15
76007;BMP280;64699;0.000;0.000;2023-03-14T03:17:47;98784.94;;;17.12
76007;BMP280;64699;0.000;0.000;2023-03-14T03:20:12;98786.38;;;17.13
76007;BMP280;64699;0.000;0.000;2023-03-14T03:22:37;98775.09;;;17.09
76007;BMP280;64699;0.000;0.000;2023-03-14T03:25:04;98777.81;;;17.09
76007;BMP280;64699;0.000;0.000;2023-03-14T03:27:30;98779.28;;;17.10
76007;BMP280;64699;0.000;0.000;2023-03-14T03:29:56;98770.84;;;17.08
76007;BMP280;64699;0.000;0.000;2023-03-14T03:32:22;98776.34;;;17.08
76007;BMP280;64699;0.000;0.000;2023-03-14T03:34:47;98769.41;;;17.07
76007;BMP280;64699;0.000;0.000;2023-03-14T03:37:12;98751.34;;;17.04
76007;BMP280;64699;0.000;0.000;2023-03-14T03:39:37;98752.78;;;17.05
76007;BMP280;64699;0.000;0.000;2023-03-14T03:42:03;98751.50;;;17.06
76007;BMP280;64699;0.000;0.000;2023-03-14T03:44:28;98754.66;;;17.03
76007;BMP280;64699;0.000;0.000;2023-03-14T03:46:53;98749.31;;;17.05
76007;BMP280;64699;0.000;0.000;2023-03-14T03:49:18;98755.72;;;17.07
76007;BMP280;64699;0.000;0.000;2023-03-14T03:51:44;98761.03;;;17.05
76007;BMP280;64699;0.000;0.000;2023-03-14T03:54:09;98756.81;;;17.04
76007;BMP280;64699;0.000;0.000;2023-03-14T03:56:34;98753.34;;;17.04
76007;BMP280;64699;0.000;0.000;2023-03-14T03:58:59;98741.66;;;17.03
76007;BMP280;64699;0.000;0.000;2023-03-14T04:01:25;98745.69;;;17.02
76007;BMP280;64699;0.000;0.000;2023-03-14T04:03:50;98749.72;;;17.01
76007;BMP280;64699;0.000;0.000;2023-03-14T04:06:15;98748.25;;;17.00
76007;BMP280;64699;0.000;0.000;2023-03-14T04:08:41;98737.28;;;17.00
76007;BMP280;64699;0.000;0.000;2023-03-14T04:11:06;98733.06;;;16.99
76007;BMP280;64699;0.000;0.000;2023-03-14T04:13:31;98733.06;;;16.99
76007;BMP280;64699;0.000;0.000;2023-03-14T04:15:57;98732.19;;;16.97
76007;BMP280;64699;0.000;0.000;2023-03-14T04:18:22;98736.94;;;16.96
76007;BMP280;64699;0.000;0.000;2023-03-14T04:20:55;98727.25;;;16.95
76007;BMP280;64699;0.000;0.000;2023-03-14T04:23:21;98735.66;;;16.97
76007;BMP280;64699;0.000;0.000;2023-03-14T04:25:49;98734.22;;;16.96
76007;BMP280;64699;0.000;0.000;2023-03-14T04:28:15;98730.00;;;16.95
76007;BMP280;64699;0.000;0.000;2023-03-14T04:30:40;98745.72;;;16.95
76007;BMP280;64699;0.000;0.000;2023-03-14T04:33:05;98755.97;;;16.94
76007;BMP280;64699;0.000;0.000;2023-03-14T04:35:32;98762.16;;;16.95
76007;BMP280;64699;0.000;0.000;2023-03-14T04:37:57;98754.53;;;16.93
76007;BMP280;64699;0.000;0.000;2023-03-14T04:40:22;98761.28;;;16.92
76007;BMP280;64699;0.000;0.000;2023-03-14T04:42:48;98765.50;;;16.93
76007;BMP280;64699;0.000;0.000;2023-03-14T04:45:13;98760.72;;;16.94
76007;BMP280;64699;0.000;0.000;2023-03-14T04:47:38;98758.53;;;16.92
76007;BMP280;64699;0.000;0.000;2023-03-14T04:50:04;98773.53;;;16.91
76007;BMP280;64699;0.000;0.000;2023-03-14T04:52:29;98757.06;;;16.91
76007;BMP280;64699;0.000;0.000;2023-03-14T04:54:54;98749.75;;;16.94
76007;BMP280;64699;0.000;0.000;2023-03-14T04:57:19;98740.22;;;16.95
76007;BMP280;64699;0.000;0.000;2023-03-14T04:59:45;98730.00;;;16.95
76007;BMP280;64699;0.000;0.000;2023-03-14T05:02:11;98718.28;;;16.95
76007;BMP280;64699;0.000;0.000;2023-03-14T05:04:40;98714.47;;;16.98
76007;BMP280;64699;0.000;0.000;2023-03-14T05:07:08;98704.34;;;17.00
76007;BMP280;64699;0.000;0.000;2023-03-14T05:09:33;98708.59;;;17.01
76007;BMP280;64699;0.000;0.000;2023-03-14T05:11:59;98709.63;;;17.06
76007;BMP280;64699;0.000;0.000;2023-03-14T05:14:24;98709.06;;;17.07
76007;BMP280;64699;0.000;0.000;2023-03-14T05:16:49;98714.91;;;17.11
76007;BMP280;64699;0.000;0.000;2023-03-14T05:19:14;98709.41;;;17.11
76007;BMP280;64699;0.000;0.000;2023-03-14T05:21:40;98686.72;;;17.11
76007;BMP280;64699;0.000;0.000;2023-03-14T05:24:05;98671.16;;;17.13
76007;BMP280;64699;0.000;0.000;2023-03-14T05:26:30;98655.59;;;17.16
76007;BMP280;64699;0.000;0.000;2023-03-14T05:28:56;98655.22;;;17.19
76007;BMP280;64699;0.000;0.000;2023-03-14T05:31:21;98663.44;;;17.19
76007;BMP280;64699;0.000;0.000;2023-03-14T05:33:46;98677.47;;;17.23
76007;BMP280;64699;0.000;0.000;2023-03-14T05:36:12;98688.81;;;17.27
76007;BMP280;64699;0.000;0.000;2023-03-14T05:38:37;98678.94;;;17.24
76007;BMP280;64699;0.000;0.000;2023-03-14T05:41:02;98681.13;;;17.26
76007;BMP280;64699;0.000;0.000;2023-03-14T05:43:28;98691.69;;;17.29
76007;BMP280;64699;0.000;0.000;2023-03-14T05:45:53;98683.47;;;17.29
76007;BMP280;64699;0.000;0.000;2023-03-14T05:48:18;98666.47;;;17.31
76007;BMP280;64699;0.000;0.000;2023-03-14T05:50:44;98675.00;;;17.35
76007;BMP280;64699;0.000;0.000;2023-03-14T05:53:09;98662.03;;;17.35
76007;BMP280;64699;0.000;0.000;2023-03-14T05:55:34;98668.81;;;17.34
76007;BMP280;64699;0.000;0.000;2023-03-14T05:57:59;98651.75;;;17.36
76007;BMP280;64699;0.000;0.000;2023-03-14T06:00:25;98648.63;;;17.39
76007;BMP280;64699;0.000;0.000;2023-03-14T06:02:50;98645.16;;;17.39
76007;BMP280;64699;0.000;0.000;2023-03-14T06:05:15;98641.88;;;17.40
76007;BMP280;64699;0.000;0.000;2023-03-14T06:07:41;98630.47;;;17.43
76007;BMP280;64699;0.000;0.000;2023-03-14T06:10:12;98630.94;;;17.49
76007;BMP280;64699;0.000;0.000;2023-03-14T06:12:43;98629.66;;;17.50
76007;BMP280;64699;0.000;0.000;2023-03-14T06:15:11;98635.91;;;17.51
76007;BMP280;64699;0.000;0.000;2023-03-14T06:17:37;98622.31;;;17.53
76007;BMP280;64699;0.000;0.000;2023-03-14T06:20:02;98636.22;;;17.55
76007;BMP280;64699;0.000;0.000;2023-03-14T06:22:27;98632.88;;;17.56
76007;BMP280;64699;0.000;0.000;2023-03-14T06:24:53;98621.22;;;17.56
76007;BMP280;64699;0.000;0.000;2023-03-14T06:27:18;98613.13;;;17.58
76007;BMP280;64699;0.000;0.000;2023-03-14T06:29:43;98613.53;;;17.54
76007;BMP280;64699;0.000;0.000;2023-03-14T06:32:11;98616.38;;;17.64
76007;BMP280;64699;0.000;0.000;2023-03-14T06:34:37;98622.25;;;17.60
76007;BMP280;64699;0.000;0.000;2023-03-14T06:37:07;98598.44;;;17.63
76007;BMP280;64699;0.000;0.000;2023-03-14T06:39:33;98607.94;;;17.62
76007;BMP280;64699;0.000;0.000;2023-03-14T06:42:03;98593.66;;;17.63
76007;BMP280;64699;0.000;0.000;2023-03-14T06:44:28;98587.44;;;17.63
76007;BMP280;64699;0.000;0.000;2023-03-14T06:46:54;98591.31;;;17.60
76007;BMP280;64699;0.000;0.000;2023-03-14T06:49:19;98587.63;;;17.65
76007;BMP280;64699;0.000;0.000;2023-03-14T06:51:44;98584.13;;;17.64
76007;BMP280;64699;0.000;0.000;2023-03-14T06:54:09;98602.78;;;17.66
76007;BMP280;64699;0.000;0.000;2023-03-14T06:56:35;98587.75;;;17.67
76007;BMP280;64699;0.000;0.000;2023-03-14T06:59:00;98591.78;;;17.66
76007;BMP280;64699;0.000;0.000;2023-03-14T07:01:26;98599.28;;;17.65
76007;BMP280;64699;0.000;0.000;2023-03-14T07:03:52;98603.09;;;17.70
76007;BMP280;64699;0.000;0.000;2023-03-14T07:06:17;98598.72;;;17.67
76007;BMP280;64699;0.000;0.000;2023-03-14T07:08:42;98599.06;;;17.71
76007;BMP280;64699;0.000;0.000;2023-03-14T07:11:08;98606.00;;;17.72
76007;BMP280;64699;0.000;0.000;2023-03-14T07:13:35;98588.38;;;17.75
76007;BMP280;64699;0.000;0.000;2023-03-14T07:16:00;98595.31;;;17.76
76007;BMP280;64699;0.000;0.000;2023-03-14T07:18:25;98593.50;;;17.78
76007;BMP280;64699;0.000;0.000;2023-03-14T07:20:51;98579.75;;;17.78
76007;BMP280;64699;0.000;0.000;2023-03-14T07:23:16;98589.41;;;17.79
76007;BMP280;64699;0.000;0.000;2023-03-14T07:25:41;98590.16;;;17.80
76007;BMP280;64699;0.000;0.000;2023-03-14T07:28:06;98595.50;;;17.78
76007;BMP280;64699;0.000;0.000;2023-03-14T07:30:32;98590.16;;;17.80
76007;BMP280;64699;0.000;0.000;2023-03-14T07:32:57;98591.38;;;17.86
76007;BMP280;64699;0.000;0.000;2023-03-14T07:35:31;98577.88;;;17.81
76007;BMP280;64699;0.000;0.000;2023-03-14T07:38:26;98589.03;;;17.83
76007;BMP280;64699;0.000;0.000;2023-03-14T07:40:57;98606.63;;;17.80
76007;BMP280;64699;0.000;0.000;2023-03-14T07:43:22;98605.50;;;17.83
76007;BMP280;64699;0.000;0.000;2023-03-14T07:45:48;98596.31;;;17.88
76007;BMP280;64699;0.000;0.000;2023-03-14T07:48:13;98602.50;;;17.88
76007;BMP280;64699;0.000;0.000;2023-03-14T07:50:38;98604.38;;;17.86
76007;BMP280;64699;0.000;0.000;2023-03-14T07:53:03;98598.00;;;17.83
76007;BMP280;64699;0.000;0.000;2023-03-14T07:55:29;98615.38;;;17.86
76007;BMP280;64699;0.000;0.000;2023-03-14T07:57:54;98615.38;;;17.86
76007;BMP280;64699;0.000;0.000;2023-03-14T08:00:19;98619.72;;;17.89
76007;BMP280;64699;0.000;0.000;2023-03-14T08:02:45;98603.22;;;17.89
76007;BMP280;64699;0.000;0.000;2023-03-14T08:05:10;98612.78;;;17.88
76007;BMP280;64699;0.000;0.000;2023-03-14T08:07:38;98610.75;;;17.88
76007;BMP280;64699;0.000;0.000;2023-03-14T08:10:09;98621.16;;;17.90
76007;BMP280;64699;0.000;0.000;2023-03-14T08:12:34;98599.19;;;17.90
76007;BMP280;64699;0.000;0.000;2023-03-14T08:15:00;98601.81;;;17.88
76007;BMP280;64699;0.000;0.000;2023-03-14T08:17:25;98609.13;;;17.85
76007;BMP280;64699;0.000;0.000;2023-03-14T08:19:50;98607.28;;;17.88
76007;BMP280;64699;0.000;0.000;2023-03-14T08:22:16;98610.03;;;17.88
76007;BMP280;64699;0.000;0.000;2023-03-14T08:24:41;98600.16;;;17.85
76007;BMP280;64699;0.000;0.000;2023-03-14T08:27:06;98604.38;;;17.86
76007;BMP280;64699;0.000;0.000;2023-03-14T08:29:38;98608.25;;;17.83
76007;BMP280;64699;0.000;0.000;2023-03-14T08:32:11;98613.59;;;17.81
76007;BMP280;64699;0.000;0.000;2023-03-14T08:34:43;98608.81;;;17.81
76007;BMP280;64699;0.000;0.000;2023-03-14T08:37:08;98608.09;;;17.81
76007;BMP280;64699;0.000;0.000;2023-03-14T08:39:36;98613.59;;;17.81
76007;BMP280;64699;0.000;0.000;2023-03-14T08:42:10;98611.00;;;17.83
76007;BMP280;64699;0.000;0.000;2023-03-14T08:44:36;98604.06;;;17.82
76007;BMP280;64699;0.000;0.000;2023-03-14T08:47:01;98616.50;;;17.83
76007;BMP280;64699;0.000;0.000;2023-03-14T08:49:26;98617.97;;;17.84
76007;BMP280;64699;0.000;0.000;2023-03-14T08:51:51;98619.38;;;17.85
76007;BMP280;64699;0.000;0.000;2023-03-14T08:54:16;98599.31;;;17.82
76007;BMP280;64699;0.000;0.000;2023-03-14T08:56:42;98611.00;;;17.83
76007;BMP280;64699;0.000;0.000;2023-03-14T08:59:07;98606.81;;;17.82
76007;BMP280;64699;0.000;0.000;2023-03-14T09:01:33;98597.66;;;17.79
76007;BMP280;64699;0.000;0.000;2023-03-14T09:03:58;98593.06;;;17.82
76007;BMP280;64699;0.000;0.000;2023-03-14T09:06:23;98592.75;;;17.78
76007;BMP280;64699;0.000;0.000;2023-03-14T09:08:49;98590.88;;;17.80
76007;BMP280;64699;0.000;0.000;2023-03-14T09:11:14;98592.75;;;17.78
76007;BMP280;64699;0.000;0.000;2023-03-14T09:13:40;98591.28;;;17.77
76007;BMP280;64699;0.000;0.000;2023-03-14T09:16:05;98577.00;;;17.78
76007;BMP280;64699;0.000;0.000;2023-03-14T09:18:31;98569.31;;;17.77
76007;BMP280;64699;0.000;0.000;2023-03-14T09:20:56;98571.91;;;17.75
76007;BMP280;64699;0.000;0.000;2023-03-14T09:23:22;98570.47;;;17.74
76007;BMP280;64699;0.000;0.000;2023-03-14T09:25:47;98571.22;;;17.74
76007;BMP280;64699;0.000;0.000;2023-03-14T09:28:12;98567.88;;;17.76
76007;BMP280;64699;0.000;0.000;2023-03-14T09:30:38;98565.13;;;17.76
76007;BMP280;64699;0.000;0.000;2023-03-14T09:33:03;98562.38;;;17.76
76007;BMP280;64699;0.000;0.000;2023-03-14T09:35:28;98555.78;;;17.79
76007;BMP280;64699;0.000;0.000;2023-03-14T09:37:54;98555.03;;;17.78
76007;BMP280;64699;0.000;0.000;2023-03-14T09:40:19;98557.63;;;17.76
76007;BMP280;64699;0.000;0.000;2023-03-14T09:42:49;98551.56;;;17.78
76007;BMP280;64699;0.000;0.000;2023-03-14T09:45:17;98550.72;;;17.85
76007;BMP280;64699;0.000;0.000;2023-03-14T09:47:43;98548.38;;;17.81
76007;BMP280;64699;0.000;0.000;2023-03-14T09:50:11;98536.06;;;17.73
76007;BMP280;64699;0.000;0.000;2023-03-14T09:52:38;98545.34;;;17.77
76007;BMP280;64699;0.000;0.000;2023-03-14T09:55:11;98538.94;;;17.75
76007;BMP280;64699;0.000;0.000;2023-03-14T09:57:37;98534.47;;;17.70
76007;BMP280;64699;0.000;0.000;2023-03-14T10:00:05;98527.50;;;17.69
76007;BMP280;64699;0.000;0.000;2023-03-14T10:02:39;98515.41;;;17.72
76007;BMP280;64699;0.000;0.000;2023-03-14T10:05:07;98519.72;;;17.75
76007;BMP280;64699;0.000;0.000;2023-03-14T10:07:38;98512.66;;;17.72
76007;BMP280;64699;0.000;0.000;2023-03-14T10:10:08;98516.38;;;17.67
76007;BMP280;64699;0.000;0.000;2023-03-14T10:12:35;98516.38;;;17.67
76007;BMP280;64699;0.000;0.000;2023-03-14T10:15:05;98517.81;;;17.68
76007;BMP280;64699;0.000;0.000;2023-03-14T10:17:37;98522.03;;;17.69
76007;BMP280;64699;0.000;0.000;2023-03-14T10:20:03;98533.00;;;17.69
76007;BMP280;64699;0.000;0.000;2023-03-14T10:22:31;98528.63;;;17.66
76007;BMP280;64699;0.000;0.000;2023-03-14T10:25:00;98521.13;;;17.66
76007;BMP280;64699;0.000;0.000;2023-03-14T10:27:33;98509.75;;;17.70
76007;BMP280;64699;0.000;0.000;2023-03-14T10:30:00;98503.94;;;17.66
76007;BMP280;64699;0.000;0.000;2023-03-14T10:32:31;98500.44;;;17.65
76007;BMP280;64699;0.000;0.000;2023-03-14T10:37:29;98490.50;;;17.60
76007;BMP280;64699;0.000;0.000;2023-03-14T10:40:01;98487.75;;;17.60
76007;BMP280;64699;0.000;0.000;2023-03-14T10:42:31;98491.78;;;17.59
76007;BMP280;64699;0.000;0.000;2023-03-14T10:44:59;98488.28;;;17.59
76007;BMP280;64699;0.000;0.000;2023-03-14T10:47:26;98492.63;;;17.62
76007;BMP280;64699;0.000;0.000;2023-03-14T10:49:53;98492.31;;;17.58
76007;BMP280;64699;0.000;0.000;2023-03-14T10:52:28;98492.88;;;17.56
76007;BMP280;64699;0.000;0.000;2023-03-14T10:54:58;98484.34;;;17.52
76007;BMP280;64699;0.000;0.000;2023-03-14T10:57:24;98483.97;;;17.56
76007;BMP280;64699;0.000;0.000;2023-03-14T10:59:49;98489.25;;;17.54
76007;BMP280;64699;0.000;0.000;2023-03-14T11:07:18;98497.50;;;17.54
76007;BMP280;64699;0.000;0.000;2023-03-14T11:14:51;98504.13;;;17.51
76007;BMP280;64699;0.000;0.000;2023-03-14T11:17:24;98504.69;;;17.49
76007;BMP280;64699;0.000;0.000;2023-03-14T11:22:27;98501.66;;;17.45
76007;BMP280;64699;0.000;0.000;2023-03-14T11:27:22;98513.19;;;17.44
76007;BMP280;64699;0.000;0.000;2023-03-14T11:29:52;98514.63;;;17.45
76007;BMP280;64699;0.000;0.000;2023-03-14T11:32:24;98508.97;;;17.43
76007;BMP280;64699;0.000;0.000;2023-03-14T11:34:53;98504.22;;;17.43
76007;BMP280;64699;0.000;0.000;2023-03-14T11:39:50;98498.00;;;17.43
76007;BMP280;64699;0.000;0.000;2023-03-14T11:42:17;98490.31;;;17.41
76007;BMP280;64699;0.000;0.000;2023-03-14T11:44:44;98488.31;;;17.42
76007;BMP280;64699;0.000;0.000;2023-03-14T11:47:29;98476.78;;;17.43
76007;BMP280;64699;0.000;0.000;2023-03-14T11:50:01;98471.28;;;17.43
76007;BMP280;64699;0.000;0.000;2023-03-14T11:55:05;98483.78;;;17.37
76007;BMP280;64699;0.000;0.000;2023-03-14T11:57:32;98470.22;;;17.39
76007;BMP280;64699;0.000;0.000;2023-03-14T12:00:00;98477.91;;;17.41
76007;BMP280;64699;0.000;0.000;2023-03-14T12:02:34;98480.06;;;17.42
76007;BMP280;64699;0.000;0.000;2023-03-14T12:10:10;98482.50;;;17.38
76007;BMP280;64699;0.000;0.000;2023-03-14T12:12:35;98490.72;;;17.38
76007;BMP280;64699;0.000;0.000;2023-03-14T12:15:01;98492.59;;;17.36
76007;BMP280;64699;0.000;0.000;2023-03-14T12:17:52;98484.94;;;17.34
76007;BMP280;64699;0.000;0.000;2023-03-14T12:20:17;98480.91;;;17.35
76007;BMP280;64699;0.000;0.000;2023-03-14T12:22:43;98482.06;;;17.32
76007;BMP280;64699;0.000;0.000;2023-03-14T12:27:42;98478.00;;;17.33
76007;BMP280;64699;0.000;0.000;2023-03-14T12:40:58;98485.91;;;17.29
76007;BMP280;64699;0.000;0.000;2023-03-14T12:46:33;98495.28;;;17.26
76007;BMP280;64699;0.000;0.000;2023-03-14T12:48:39;98483.56;;;17.26
76007;BMP280;64699;0.000;0.000;2023-03-14T12:51:05;98485.59;;;17.25
76007;BMP280;64699;0.000;0.000;2023-03-14T12:56:07;98480.81;;;17.26
76007;BMP280;64699;0.000;0.000;2023-03-14T13:01:00;98490.34;;;17.25
76007;BMP280;64699;0.000;0.000;2023-03-14T13:03:35;98492.38;;;17.24
76007;BMP280;64699;0.000;0.000;2023-03-14T13:06:02;98466.72;;;17.12
76007;BMP280;64699;0.000;0.000;2023-03-14T13:08:35;98489.47;;;17.22
76007;BMP280;64699;0.000;0.000;2023-03-14T13:11:01;98492.22;;;17.22
76007;BMP280;64699;0.000;0.000;2023-03-14T13:13:27;98492.03;;;17.20
76007;BMP280;64699;0.000;0.000;2023-03-14T13:15:56;98496.06;;;17.19
76007;BMP280;64699;0.000;0.000;2023-03-14T13:18:26;98500.13;;;17.18
76007;BMP280;64699;0.000;0.000;2023-03-14T13:20:55;98499.38;;;17.18
76007;BMP280;64699;0.000;0.000;2023-03-14T13:23:25;98496.06;;;17.19
76007;BMP280;64699;0.000;0.000;2023-03-14T13:25:51;98513.09;;;17.18
76007;BMP280;64699;0.000;0.000;2023-03-14T13:28:16;98524.06;;;17.18
76007;BMP280;64699;0.000;0.000;2023-03-14T13:30:43;98531.00;;;17.19
76007;BMP280;64699;0.000;0.000;2023-03-14T13:33:13;98533.19;;;17.20
76007;BMP280;64699;0.000;0.000;2023-03-14T13:35:40;98536.34;;;17.17
76007;BMP280;64699;0.000;0.000;2023-03-14T13:38:13;98530.28;;;17.18
76007;BMP280;64699;0.000;0.000;2023-03-14T13:40:39;98534.16;;;17.15
76007;BMP280;64699;0.000;0.000;2023-03-14T13:45:53;98538.34;;;17.16
76007;BMP280;64699;0.000;0.000;2023-03-14T13:48:19;98545.13;;;17.15
76007;BMP280;64699;0.000;0.000;2023-03-14T13:50:55;98546.41;;;17.14
76007;BMP280;64699;0.000;0.000;2023-03-14T13:53:21;98547.69;;;17.13
76007;BMP280;64699;0.000;0.000;2023-03-14T13:55:47;98548.28;;;17.12
76007;BMP280;64699;0.000;0.000;2023-03-14T13:58:45;98539.47;;;17.13
76007;BMP280;64699;0.000;0.000;2023-03-14T14:01:25;98552.47;;;17.13
76007;BMP280;64699;0.000;0.000;2023-03-14T14:03:50;98560.72;;;17.13
76007;BMP280;64699;0.000;0.000;2023-03-14T14:06:35;98554.50;;;17.12
76007;BMP280;64699;0.000;0.000;2023-03-14T14:09:09;98555.22;;;17.13
76007;BMP280;64699;0.000;0.000;2023-03-14T14:14:03;98554.16;;;17.08
76007;BMP280;64699;0.000;0.000;2023-03-14T14:16:29;98556.19;;;17.08
76007;BMP280;64699;0.000;0.000;2023-03-14T14:18:57;98549.81;;;17.05
76007;BMP280;64699;0.000;0.000;2023-03-14T14:21:25;98549.81;;;17.05
76007;BMP280;64699;0.000;0.000;2023-03-14T14:23:50;98540.44;;;17.08
76007;BMP280;64699;0.000;0.000;2023-03-14T14:26:16;98547.06;;;17.05
76007;BMP280;64699;0.000;0.000;2023-03-14T14:28:42;98538.53;;;17.01
76007;BMP280;64699;0.000;0.000;2023-03-14T14:33:40;98533.34;;;17.05
76007;BMP280;64699;0.000;0.000;2023-03-14T14:36:11;98525.13;;;17.05
76007;BMP280;64699;0.000;0.000;2023-03-14T14:38:38;98529.16;;;17.04
76007;BMP280;64699;0.000;0.000;2023-03-14T14:41:04;98523.66;;;17.04
76007;BMP280;64699;0.000;0.000;2023-03-14T14:43:30;98529.16;;;17.04
76007;BMP280;64699;0.000;0.000;2023-03-14T14:45:56;98523.66;;;17.04
76007;BMP280;64699;0.000;0.000;2023-03-14T14:48:23;98527.31;;;17.07
76007;BMP280;64699;0.000;0.000;2023-03-14T14:50:53;98520.91;;;17.04
76007;BMP280;64699;0.000;0.000;2023-03-14T14:53:30;98513.84;;;17.01
76007;BMP280;64699;0.000;0.000;2023-03-14T14:55:59;98520.19;;;17.04
76007;BMP280;64699;0.000;0.000;2023-03-14T14:58:35;98514.38;;;17.00
76007;BMP280;64699;0.000;0.000;2023-03-14T15:01:04;98501.22;;;16.98
76007;BMP280;64699;0.000;0.000;2023-03-14T15:03:31;98504.13;;;17.00
76007;BMP280;64699;0.000;0.000;2023-03-14T15:05:56;98497.06;;;16.97
76007;BMP280;64699;0.000;0.000;2023-03-14T15:08:22;98491.56;;;16.97
76007;BMP280;64699;0.000;0.000;2023-03-14T15:10:47;98499.06;;;16.97
76007;BMP280;64699;0.000;0.000;2023-03-14T15:13:12;98502.53;;;16.97
76007;BMP280;64699;0.000;0.000;2023-03-14T15:15:37;98505.41;;;16.99
76007;BMP280;64699;0.000;0.000;2023-03-14T15:18:08;98518.25;;;16.97
76007;BMP280;64699;0.000;0.000;2023-03-14T15:20:36;98527.06;;;16.95
76007;BMP280;64699;0.000;0.000;2023-03-14T15:23:02;98534.00;;;16.96
76007;BMP280;64699;0.000;0.000;2023-03-14T15:25:27;98541.47;;;16.96
76007;BMP280;64699;0.000;0.000;2023-03-14T15:27:52;98548.25;;;16.95
76007;BMP280;64699;0.000;0.000;2023-03-14T15:30:17;98547.53;;;16.94